Terminal Aerodrome Forecast
Issued by NWS

Current Version | Previous Version | Graphics & Text | Print | Product List | Glossary On
Versions: 1 2 3 4 5 6 7 8 9 10 11 12 13 14 15
000
FTUS41 KILN 222229 AAA
TAFLCK
TAF AMD
KLCK 222229Z 2222/2318 24010KT P6SM VCTS BKN035CB
      TEMPO 2222/2224 25012G22KT 4SM TSRA BR OVC025CB
     FM230000 28008KT P6SM VCSH BKN060
     FM230100 34004KT P6SM BKN100
     FM230900 01003KT 4SM BR BKN008
     FM231300 03006KT P6SM SCT250
      AMD NOT SKED=

USA.gov is the U.S. government's official web portal to all federal, state and local government web resources and services.